Time;durP1;ratioP1;P1;durP2;ratioP2;P2;SDS_P1;SDS_P2;PMS_P1;PMS_P2;Temp;Humidity;BMP_temperature;BMP_pressure;BME280_temperature;BME280_humidity;BME280_pressure;Samples;Min_cycle;Max_cycle;Signal;HPM_P1;HPM_P2
2022/01/01 00:02:13;;;;;;;21.97;9.17;;;;;;;11.72;100.00;137855.22;5060144;28;20042;-68
2022/01/01 00:04:40;;;;;;;20.33;9.90;;;;;;;11.74;100.00;136504.63;5057904;28;20029;-68
2022/01/01 00:07:05;;;;;;;21.60;9.13;;;;;;;11.77;100.00;135154.47;5060685;28;20040;-68
2022/01/01 00:09:31;;;;;;;25.10;8.70;;;;;;;11.82;100.00;133811.63;5060454;28;20082;-68
2022/01/01 00:11:57;;;;;;;21.60;9.40;;;;;;;11.85;100.00;131449.31;5060752;28;20627;-68
2022/01/01 00:14:22;;;;;;;25.33;10.90;;;;;;;11.81;100.00;129410.84;5058268;28;20020;-68
2022/01/01 00:16:47;;;;;;;23.60;9.40;;;;;;;11.79;100.00;129406.34;5057665;28;20396;-68
2022/01/01 00:19:13;;;;;;;21.93;9.27;;;;;;;11.82;100.00;128399.91;5060653;28;20466;-68
2022/01/01 00:21:40;;;;;;;23.13;9.13;;;;;;;11.87;100.00;127057.84;5060317;28;20107;-68
2022/01/01 00:24:06;;;;;;;24.00;9.97;;;;;;;11.80;100.00;124678.00;5060199;28;20381;-68
2022/01/01 00:26:31;;;;;;;25.47;10.23;;;;;;;11.80;100.00;124340.34;5060594;28;20281;-68
2022/01/01 00:28:57;;;;;;;23.13;9.63;;;;;;;11.84;100.00;122998.50;5060196;28;20283;-68
2022/01/01 00:31:22;;;;;;;20.23;8.50;;;;;;;11.85;100.00;121650.69;5059399;28;20040;-68
2022/01/01 00:33:47;;;;;;;19.13;8.20;;;;;;;11.87;100.00;120305.44;5059543;28;20035;-68
2022/01/01 00:36:13;;;;;;;24.97;9.03;;;;;;;11.76;100.00;119271.06;5060209;28;20233;-68
2022/01/01 00:38:38;;;;;;;23.50;8.00;;;;;;;11.80;100.00;120290.94;5060232;28;20119;-68
2022/01/01 00:41:04;;;;;;;18.87;7.80;;;;;;;11.84;100.00;118950.38;5059702;28;20541;-68
2022/01/01 00:43:29;;;;;;;24.00;8.67;;;;;;;11.83;100.00;118611.19;5059015;28;20489;-68
2022/01/01 00:45:54;;;;;;;22.57;8.47;;;;;;;11.81;100.00;117932.97;5057536;28;20041;-68
2022/01/01 00:48:20;;;;;;;22.73;9.30;;;;;;;11.84;100.00;117266.03;5060066;28;20439;-68
2022/01/01 00:50:45;;;;;;;22.17;9.97;;;;;;;11.84;100.00;116254.22;5060021;28;20036;-68
2022/01/01 00:53:11;;;;;;;27.07;9.83;;;;;;;11.78;100.00;117252.88;5058762;28;20108;-69
2022/01/01 00:55:36;;;;;;;25.43;7.93;;;;;;;11.83;100.00;117601.03;5057960;28;20261;-68
2022/01/01 00:58:02;;;;;;;23.47;9.77;;;;;;;11.78;100.00;116243.16;5055379;28;20624;-68
2022/01/01 01:00:27;;;;;;;24.90;9.50;;;;;;;11.84;100.00;115917.34;5058704;28;20021;-68
2022/01/01 01:02:52;;;;;;;27.83;8.63;;;;;;;11.79;100.00;115907.31;5057316;28;20168;-69
2022/01/01 01:05:18;;;;;;;25.87;8.63;;;;;;;11.86;100.00;114911.84;5058668;28;20131;-69
2022/01/01 01:07:43;;;;;;;25.50;9.07;;;;;;;11.83;100.00;112884.97;5056492;28;20192;-68
2022/01/01 01:10:09;;;;;;;24.10;7.13;;;;;;;11.87;100.00;113229.34;5058473;28;20121;-68
2022/01/01 01:12:47;;;;;;;21.53;8.73;;;;;;;11.82;100.00;111537.06;5056833;28;20036;-68
2022/01/01 01:15:17;;;;;;;26.87;8.33;;;;;;;11.83;100.00;112211.91;5055751;28;20105;-68
2022/01/01 01:17:47;;;;;;;25.23;9.47;;;;;;;11.70;100.00;114543.41;5055648;28;20032;-68
2022/01/01 01:20:13;;;;;;;24.10;8.13;;;;;;;11.74;100.00;117920.69;5057171;28;20393;-68
2022/01/01 01:22:39;;;;;;;24.00;7.87;;;;;;;11.79;100.00;117929.91;5052491;28;20193;-69
2022/01/01 01:25:05;;;;;;;23.57;8.57;;;;;;;11.78;100.00;116579.03;5052954;28;20389;-68
2022/01/01 01:27:31;;;;;;;17.73;8.03;;;;;;;11.82;100.00;116251.19;5052496;28;20063;-68
2022/01/01 01:29:58;;;;;;;23.10;8.57;;;;;;;11.77;100.00;115903.31;5057346;28;20116;-68
2022/01/01 01:32:24;;;;;;;22.53;8.43;;;;;;;11.77;100.00;116577.00;5053054;28;20237;-68
2022/01/01 01:34:49;;;;;;;26.03;9.77;;;;;;;11.76;100.00;116576.00;5056396;28;20501;-68
2022/01/01 01:37:15;;;;;;;25.37;9.40;;;;;;;11.83;100.00;116589.09;5047682;28;20039;-69
2022/01/01 01:39:40;;;;;;;23.43;8.33;;;;;;;11.83;100.00;115579.50;5050936;28;20498;-69
2022/01/01 01:42:06;;;;;;;22.50;8.53;;;;;;;11.76;100.00;114554.31;5056539;28;20104;-68
2022/01/01 01:44:36;;;;;;;22.63;8.20;;;;;;;11.74;100.00;117245.75;5054207;28;20020;-68
2022/01/01 01:47:12;;;;;;;30.63;9.63;;;;;;;11.80;100.00;116583.06;5052518;28;20316;-68
2022/01/01 01:49:38;;;;;;;26.00;8.77;;;;;;;11.81;100.00;115575.50;5048279;28;20039;-68
2022/01/01 01:52:03;;;;;;;19.27;8.40;;;;;;;11.78;100.00;114895.97;5054430;28;20485;-68
2022/01/01 01:54:29;;;;;;;23.83;8.60;;;;;;;11.86;100.00;114237.38;5054855;28;20467;-68
2022/01/01 01:56:55;;;;;;;28.03;10.27;;;;;;;11.82;100.00;111537.06;5049061;28;20178;-68
2022/01/01 01:59:22;;;;;;;20.10;8.90;;;;;;;11.79;100.00;111868.66;5051830;28;20420;-68
2022/01/01 02:01:48;;;;;;;28.87;10.30;;;;;;;11.78;100.00;112203.16;5040878;28;20588;-67
2022/01/01 02:04:13;;;;;;;27.83;9.30;;;;;;;11.80;100.00;112542.59;5053331;28;20283;-67
2022/01/01 02:06:41;;;;;;;24.17;8.57;;;;;;;11.74;100.00;112869.31;5048959;28;20028;-67
2022/01/01 02:09:09;;;;;;;23.40;7.67;;;;;;;11.84;100.00;112213.84;5053324;28;20039;-67
2022/01/01 02:11:35;;;;;;;26.27;8.83;;;;;;;11.84;100.00;110531.72;5051748;28;20032;-67
2022/01/01 02:14:03;;;;;;;25.97;9.03;;;;;;;11.81;100.00;110190.66;5050688;28;20033;-67
2022/01/01 02:16:50;;;;;;;21.77;8.43;;;;;;;11.87;100.00;108519.88;5053107;28;20254;-67
2022/01/01 02:19:15;;;;;;;25.85;10.93;;;;;;;11.83;100.00;107840.16;5054720;28;20043;-67
2022/01/01 02:21:40;;;;;;;20.57;8.93;;;;;;;11.74;100.00;108833.44;5049681;28;20481;-67
2022/01/01 02:24:06;;;;;;;28.33;10.50;;;;;;;11.73;100.00;111857.97;5050688;28;20032;-67
2022/01/01 02:26:34;;;;;;;26.33;9.63;;;;;;;11.69;100.00;112859.59;5051949;28;20020;-67
2022/01/01 02:29:00;;;;;;;29.23;10.63;;;;;;;11.68;100.00;114877.09;5052549;28;20647;-67
2022/01/01 02:31:26;;;;;;;29.47;10.83;;;;;;;11.63;100.00;116550.84;5051851;28;20028;-67
2022/01/01 02:33:52;;;;;;;32.47;11.67;;;;;;;11.69;100.00;118247.53;5053030;28;20262;-67
2022/01/01 02:36:32;;;;;;;27.77;10.83;;;;;;;11.72;100.00;118926.72;5053270;28;20454;-67
2022/01/01 02:38:58;;;;;;;25.30;10.03;;;;;;;11.68;100.00;118919.53;5050856;28;20160;-67
2022/01/01 02:41:24;;;;;;;34.57;11.93;;;;;;;11.68;100.00;118919.53;5051867;28;20032;-67
2022/01/01 02:43:49;;;;;;;34.27;12.23;;;;;;;11.77;100.00;117924.81;5051421;28;20036;-67
2022/01/01 02:46:14;;;;;;;28.63;12.57;;;;;;;11.73;100.00;116569.94;5052277;28;20508;-67
2022/01/01 02:48:44;;;;;;;28.80;11.43;;;;;;;11.76;100.00;115564.50;5052304;28;20251;-67
2022/01/01 02:51:09;;;;;;;28.97;11.43;;;;;;;11.70;100.00;113871.16;5050925;28;20024;-67
2022/01/01 02:53:35;;;;;;;28.07;12.27;;;;;;;11.70;100.00;114207.75;5054185;28;20020;-67
2022/01/01 02:56:00;;;;;;;30.17;10.93;;;;;;;11.76;100.00;115228.75;5054322;28;20020;-67
2022/01/01 02:58:25;;;;;;;30.13;11.50;;;;;;;11.68;100.00;114539.47;5053267;28;20473;-67
2022/01/01 03:00:51;;;;;;;39.03;12.90;;;;;;;11.73;100.00;114213.66;5055714;28;20106;-67
2022/01/01 03:03:16;;;;;;;30.40;12.30;;;;;;;11.71;100.00;114208.75;5055569;28;20763;-67
2022/01/01 03:05:42;;;;;;;31.40;13.00;;;;;;;11.68;100.00;114203.81;5050867;28;20037;-67
2022/01/01 03:08:08;;;;;;;34.73;12.87;;;;;;;11.74;100.00;114552.31;5056179;28;20032;-67
2022/01/01 03:10:33;;;;;;;33.70;12.67;;;;;;;11.76;100.00;112198.31;5054732;28;20116;-67
2022/01/01 03:12:58;;;;;;;37.73;12.70;;;;;;;11.76;100.00;111862.84;5045472;28;20120;-67
2022/01/01 03:15:24;;;;;;;30.77;13.87;;;;;;;11.75;100.00;109506.75;5050146;28;20024;-67
2022/01/01 03:17:49;;;;;;;34.50;13.63;;;;;;;11.73;100.00;108495.47;5051554;28;20071;-67
2022/01/01 03:20:14;;;;;;;37.33;13.70;;;;;;;11.76;100.00;107827.09;5049964;28;20047;-67
2022/01/01 03:22:40;;;;;;;37.47;13.17;;;;;;;11.73;100.00;106143.63;5045492;28;20437;-66
2022/01/01 03:25:05;;;;;;;38.90;13.70;;;;;;;11.79;100.00;105816.94;5053833;28;20676;-67
2022/01/01 03:27:31;;;;;;;40.23;14.53;;;;;;;11.80;100.00;103804.19;5052699;28;20028;-67
2022/01/01 03:29:56;;;;;;;34.17;13.33;;;;;;;11.72;100.00;103791.56;5051482;28;20032;-67
2022/01/01 03:32:22;;;;;;;35.10;14.03;;;;;;;11.71;100.00;104796.81;5048074;28;20123;-67
2022/01/01 03:34:47;;;;;;;40.40;14.17;;;;;;;11.76;100.00;104132.66;5050588;28;20071;-67
2022/01/01 03:37:12;;;;;;;40.73;15.10;;;;;;;11.65;100.00;104114.63;5057145;28;20024;-67
2022/01/01 03:39:38;;;;;;;40.30;15.50;;;;;;;11.68;100.00;105126.19;5054225;28;20044;-67
2022/01/01 03:42:03;;;;;;;39.47;14.93;;;;;;;11.63;100.00;105453.75;5049922;28;20285;-67
2022/01/01 03:44:29;;;;;;;44.63;15.93;;;;;;;11.67;100.00;106132.63;5052968;28;20296;-67
2022/01/01 03:47:09;;;;;;;48.93;15.90;;;;;;;11.62;100.00;108138.81;5053320;28;20082;-68
2022/01/01 03:49:35;;;;;;;40.80;16.70;;;;;;;11.63;100.00;108476.75;5055347;28;20032;-68
2022/01/01 03:52:00;;;;;;;41.47;16.40;;;;;;;11.66;100.00;108146.31;5056390;28;20099;-68
2022/01/01 03:54:25;;;;;;;41.73;15.93;;;;;;;11.71;100.00;105803.22;5055410;28;20182;-68
2022/01/01 03:56:51;;;;;;;45.27;16.77;;;;;;;11.69;100.00;104121.81;5053435;28;20047;-68
2022/01/01 03:59:16;;;;;;;40.23;16.43;;;;;;;11.63;100.00;106125.28;5058716;28;20024;-68
2022/01/01 04:01:42;;;;;;;41.27;17.40;;;;;;;11.60;100.00;108471.09;5055365;28;20478;-68
2022/01/01 04:04:07;;;;;;;42.70;16.23;;;;;;;11.66;100.00;108818.44;5055289;28;20052;-68
2022/01/01 04:06:32;;;;;;;38.93;16.50;;;;;;;11.69;100.00;106135.38;5052355;28;20043;-68
2022/01/01 04:08:58;;;;;;;37.80;16.07;;;;;;;11.64;100.00;106127.13;5058427;28;20163;-68
2022/01/01 04:11:23;;;;;;;43.37;15.07;;;;;;;11.68;100.00;106470.31;5054872;28;20061;-68
2022/01/01 04:13:49;;;;;;;45.30;17.83;;;;;;;11.64;100.00;105119.84;5056108;28;20040;-68
2022/01/01 04:16:16;;;;;;;42.90;16.63;;;;;;;11.63;100.00;105789.50;5054516;28;20033;-68
2022/01/01 04:18:42;;;;;;;40.37;15.37;;;;;;;11.63;100.00;105789.50;5053035;28;20067;-68
2022/01/01 04:21:09;;;;;;;40.43;16.20;;;;;;;11.66;100.00;105123.47;5053748;28;20143;-68
2022/01/01 04:23:35;;;;;;;38.53;15.67;;;;;;;11.59;100.00;105109.81;5054702;28;20508;-68
2022/01/01 04:26:01;;;;;;;38.53;15.10;;;;;;;11.68;100.00;105462.84;5054786;28;20046;-68
2022/01/01 04:28:26;;;;;;;36.10;13.40;;;;;;;11.65;100.00;103779.03;5053361;28;20021;-68
2022/01/01 04:30:52;;;;;;;39.77;14.17;;;;;;;11.66;100.00;103779.91;5051051;28;20048;-68
2022/01/01 04:33:17;;;;;;;43.80;15.77;;;;;;;11.62;100.00;103773.63;5055048;28;20397;-68
2022/01/01 04:35:42;;;;;;;41.33;14.30;;;;;;;11.65;100.00;104785.94;5047901;28;20083;-68
2022/01/01 04:38:18;;;;;;;47.13;14.00;;;;;;;11.76;100.00;102790.19;5050502;28;20051;-68
2022/01/01 04:40:44;;;;;;;41.70;14.27;;;;;;;11.71;100.00;99094.19;5051844;28;20575;-68
2022/01/01 04:43:09;;;;;;;45.50;13.77;;;;;;;11.65;100.00;100089.47;5053063;28;20029;-68
2022/01/01 04:45:35;;;;;;;36.00;15.10;;;;;;;11.71;100.00;99093.31;5054771;28;20032;-68
2022/01/01 04:48:00;;;;;;;40.63;14.57;;;;;;;11.71;100.00;97753.75;5055386;28;20024;-68
2022/01/01 04:50:25;;;;;;;35.40;13.07;;;;;;;11.70;100.00;96077.25;5049756;28;20024;-68
2022/01/01 04:52:53;;;;;;;42.90;14.23;;;;;;;11.62;100.00;96063.91;5055243;28;20037;-68
2022/01/01 04:55:18;;;;;;;40.93;14.53;;;;;;;11.63;100.00;98075.22;5054381;28;20020;-68
2022/01/01 04:57:44;;;;;;;40.07;15.10;;;;;;;11.62;100.00;98072.66;5052378;28;20485;-68
2022/01/01 05:00:09;;;;;;;42.93;15.47;;;;;;;11.66;100.00;98080.31;5058163;28;20021;-68
2022/01/01 05:02:35;;;;;;;45.07;14.30;;;;;;;11.61;100.00;98741.91;5056940;28;20143;-68
2022/01/01 05:05:00;;;;;;;42.20;14.07;;;;;;;11.64;100.00;100087.72;5048932;28;20032;-68
2022/01/01 05:07:26;;;;;;;39.87;13.47;;;;;;;11.60;100.00;100079.91;5048176;28;20036;-68
2022/01/01 05:09:51;;;;;;;37.60;13.40;;;;;;;11.63;100.00;100756.50;5055726;28;20036;-68
2022/01/01 05:12:16;;;;;;;46.10;13.40;;;;;;;11.66;100.00;99085.59;5051156;28;20400;-68
2022/01/01 05:14:42;;;;;;;45.70;13.77;;;;;;;11.56;100.00;99068.44;5057356;28;20037;-68
2022/01/01 05:17:08;;;;;;;40.17;14.93;;;;;;;11.57;100.00;102086.44;5052387;28;20469;-68
2022/01/01 05:19:33;;;;;;;41.50;14.67;;;;;;;11.51;100.00;103082.00;5056282;28;20052;-68
2022/01/01 05:21:58;;;;;;;51.87;16.47;;;;;;;11.50;100.00;105094.34;5057962;28;20500;-68
2022/01/01 05:24:24;;;;;;;42.90;14.47;;;;;;;11.59;100.00;106117.94;5054899;28;20047;-68
2022/01/01 05:26:50;;;;;;;47.73;15.83;;;;;;;11.50;100.00;105094.34;5054489;28;20032;-68
2022/01/01 05:29:15;;;;;;;41.10;13.93;;;;;;;11.58;100.00;105444.59;5054204;28;20245;-68
2022/01/01 05:31:41;;;;;;;41.70;14.33;;;;;;;11.58;100.00;104102.00;5054781;28;20070;-68
2022/01/01 05:34:06;;;;;;;39.30;14.37;;;;;;;11.62;100.00;102430.69;5053104;28;20289;-68
2022/01/01 05:36:31;;;;;;;43.97;14.07;;;;;;;11.56;100.00;100744.28;5054344;28;20059;-68
2022/01/01 05:38:57;;;;;;;38.13;13.70;;;;;;;11.58;100.00;101418.38;5051573;28;20284;-68
2022/01/01 05:41:22;;;;;;;43.00;14.93;;;;;;;11.48;100.00;102071.41;5056710;28;20070;-68
2022/01/01 05:43:48;;;;;;;44.10;15.53;;;;;;;11.43;100.00;104411.41;5057042;28;20029;-68
2022/01/01 05:46:14;;;;;;;43.93;14.80;;;;;;;11.43;100.00;106760.94;5058510;28;20519;-68
2022/01/01 05:48:39;;;;;;;38.40;14.30;;;;;;;11.49;100.00;106099.56;5056500;28;20047;-68
2022/01/01 05:51:06;;;;;;;44.33;16.17;;;;;;;11.40;100.00;107426.97;5056087;28;20484;-68
2022/01/01 05:53:32;;;;;;;44.60;15.93;;;;;;;11.44;100.00;109785.06;5057293;28;20020;-68
2022/01/01 05:55:57;;;;;;;44.40;14.40;;;;;;;11.51;100.00;108789.25;5060526;28;20032;-68
2022/01/01 05:58:23;;;;;;;49.83;16.50;;;;;;;11.46;100.00;107437.19;5057629;28;20098;-68
2022/01/01 06:00:48;;;;;;;44.70;16.10;;;;;;;11.48;100.00;107775.81;5057678;28;20032;-68
2022/01/01 06:03:15;;;;;;;39.43;15.60;;;;;;;11.51;100.00;106102.31;5056349;28;20037;-68
2022/01/01 06:05:40;;;;;;;44.27;14.93;;;;;;;11.48;100.00;105426.38;5056133;28;20028;-68
2022/01/01 06:08:06;;;;;;;42.47;14.73;;;;;;;11.52;100.00;104091.22;5055316;28;20106;-68
2022/01/01 06:10:31;;;;;;;46.30;15.27;;;;;;;11.50;100.00;104087.59;5057948;28;20039;-68
2022/01/01 06:12:57;;;;;;;46.13;16.33;;;;;;;11.49;100.00;104421.34;5056887;28;20039;-68
2022/01/01 06:15:22;;;;;;;46.73;15.77;;;;;;;11.47;100.00;104082.19;5055871;28;20127;-68
2022/01/01 06:17:47;;;;;;;40.30;16.57;;;;;;;11.55;100.00;103425.53;5058649;28;20032;-68
2022/01/01 06:20:14;;;;;;;45.40;15.87;;;;;;;11.51;100.00;101070.81;5058153;28;20089;-68
2022/01/01 06:22:40;;;;;;;41.20;15.60;;;;;;;11.50;100.00;100733.81;5057157;28;20120;-67
2022/01/01 06:25:05;;;;;;;45.67;16.07;;;;;;;11.53;100.00;100403.84;5056119;28;20123;-67
2022/01/01 06:27:31;;;;;;;43.13;16.10;;;;;;;11.49;100.00;99726.59;5056406;28;20033;-67
2022/01/01 06:29:56;;;;;;;44.70;16.00;;;;;;;11.52;100.00;100401.25;5054697;28;20036;-67
2022/01/01 06:32:22;;;;;;;44.43;14.87;;;;;;;11.48;100.00;102071.41;5056923;28;20056;-69
2022/01/01 06:34:47;;;;;;;40.50;16.43;;;;;;;11.39;100.00;104404.22;5057903;28;20131;-67
2022/01/01 06:37:13;;;;;;;42.47;16.57;;;;;;;11.40;100.00;106419.69;5057855;28;20063;-67
2022/01/01 06:39:38;;;;;;;57.60;17.83;;;;;;;11.38;100.00;108093.94;5056322;28;20028;-67
2022/01/01 06:42:04;;;;;;;45.87;18.00;;;;;;;11.38;100.00;109774.59;5058243;28;20122;-67
2022/01/01 06:44:29;;;;;;;52.90;18.13;;;;;;;11.39;100.00;110111.63;5056048;28;20536;-67
2022/01/01 06:46:55;;;;;;;49.33;17.40;;;;;;;11.41;100.00;110451.50;5055125;28;20036;-67
2022/01/01 06:49:20;;;;;;;44.90;17.27;;;;;;;11.44;100.00;110121.13;5056770;28;20039;-67
2022/01/01 06:51:46;;;;;;;54.23;17.90;;;;;;;11.48;100.00;108784.53;5056747;28;20496;-67
2022/01/01 06:54:12;;;;;;;50.47;17.90;;;;;;;11.41;100.00;108771.41;5057161;28;20024;-67
2022/01/01 06:56:37;;;;;;;45.83;18.43;;;;;;;11.47;100.00;108781.72;5054615;28;20290;-67
2022/01/01 06:59:03;;;;;;;52.37;20.17;;;;;;;11.45;100.00;109114.88;5057227;28;20115;-67
2022/01/01 07:01:28;;;;;;;48.63;18.83;;;;;;;11.40;100.00;110113.53;5056037;28;20029;-67
2022/01/01 07:03:54;;;;;;;52.93;18.00;;;;;;;11.43;100.00;111463.81;5049762;28;20296;-67
2022/01/01 07:06:19;;;;;;;49.60;17.87;;;;;;;11.36;100.00;111451.25;5059649;28;20185;-67
2022/01/01 07:08:45;;;;;;;52.43;17.73;;;;;;;11.37;100.00;112798.16;5060211;28;20119;-67
2022/01/01 07:11:10;;;;;;;47.90;16.80;;;;;;;11.43;100.00;113481.63;5061016;28;20566;-67
2022/01/01 07:13:36;;;;;;;40.03;16.47;;;;;;;11.41;100.00;112468.69;5060198;28;20029;-67
2022/01/01 07:16:01;;;;;;;48.33;16.43;;;;;;;11.44;100.00;112810.84;5061509;28;20676;-67
2022/01/01 07:18:27;;;;;;;43.37;16.77;;;;;;;11.43;100.00;111463.81;5059870;28;20052;-67
2022/01/01 07:20:52;;;;;;;43.00;16.60;;;;;;;11.50;100.00;110803.88;5060068;28;20481;-68
2022/01/01 07:23:18;;;;;;;49.30;16.60;;;;;;;11.49;100.00;107778.63;5060050;28;20246;-69
2022/01/01 07:25:43;;;;;;;43.27;16.90;;;;;;;11.48;100.00;106433.47;5060168;28;20036;-67
2022/01/01 07:28:13;;;;;;;42.63;15.00;;;;;;;11.46;100.00;105422.72;5058887;28;20036;-68
2022/01/01 07:30:38;;;;;;;46.93;16.77;;;;;;;11.46;100.00;101737.84;5059453;28;20101;-67
2022/01/01 07:33:04;;;;;;;44.97;15.83;;;;;;;11.47;100.00;101399.06;5062015;28;20431;-67
2022/01/01 07:35:29;;;;;;;47.27;15.80;;;;;;;11.47;100.00;100728.59;5057436;28;20105;-67
2022/01/01 07:37:55;;;;;;;41.93;16.20;;;;;;;11.45;100.00;99719.69;5059628;28;20607;-67
2022/01/01 07:40:20;;;;;;;41.13;15.07;;;;;;;11.54;100.00;97055.13;5058046;28;20112;-67
2022/01/01 07:42:47;;;;;;;39.07;14.83;;;;;;;11.54;100.00;95046.41;5059242;28;20265;-67
2022/01/01 07:45:13;;;;;;;45.70;15.00;;;;;;;11.53;100.00;92033.13;5057252;28;20033;-67
2022/01/01 07:47:39;;;;;;;41.87;16.40;;;;;;;11.47;100.00;92693.09;5058629;28;20501;-67
2022/01/01 07:50:06;;;;;;;40.17;15.40;;;;;;;11.47;100.00;93027.53;5059699;28;20039;-67
2022/01/01 07:52:31;;;;;;;42.40;15.10;;;;;;;11.48;100.00;94367.25;5052722;28;20036;-69
2022/01/01 07:54:57;;;;;;;38.00;14.73;;;;;;;11.53;100.00;89359.03;5059434;28;20378;-67
2022/01/01 07:57:22;;;;;;;36.90;13.93;;;;;;;11.52;100.00;85351.00;5059049;28;20105;-67
2022/01/01 07:59:48;;;;;;;36.87;14.07;;;;;;;11.45;100.00;84006.06;5059920;28;20039;-67
2022/01/01 08:02:13;;;;;;;41.53;13.70;;;;;;;11.42;100.00;86671.94;5056526;28;20035;-67
2022/01/01 08:04:38;;;;;;;34.67;12.70;;;;;;;11.42;100.00;87673.53;5059047;28;20439;-67
2022/01/01 08:07:04;;;;;;;45.07;15.37;;;;;;;11.41;100.00;88339.13;5059934;28;20056;-67
2022/01/01 08:09:29;;;;;;;33.60;13.33;;;;;;;11.46;100.00;89683.03;5057159;28;20036;-67
2022/01/01 08:11:55;;;;;;;36.63;13.50;;;;;;;11.46;100.00;87678.84;5056435;28;20364;-67
2022/01/01 08:14:21;;;;;;;29.63;11.87;;;;;;;11.42;100.00;89009.44;5059991;28;20186;-66
2022/01/01 08:17:03;;;;;;;31.77;11.40;;;;;;;11.42;100.00;89008.69;5057127;28;20027;-69
2022/01/01 08:19:29;;;;;;;40.13;13.33;;;;;;;11.41;100.00;88339.13;5058168;28;20542;-67
2022/01/01 08:21:56;;;;;;;37.27;13.80;;;;;;;11.43;100.00;89010.22;5055309;28;20119;-67
2022/01/01 08:24:22;;;;;;;39.13;13.57;;;;;;;11.41;100.00;87338.13;5059188;28;20205;-67
2022/01/01 08:26:48;;;;;;;39.00;13.97;;;;;;;11.44;100.00;87008.78;5059091;28;20036;-67
2022/01/01 08:29:14;;;;;;;36.30;11.53;;;;;;;11.43;100.00;87341.16;5060082;28;20027;-67
2022/01/01 08:31:39;;;;;;;33.67;11.40;;;;;;;11.45;100.00;87344.16;5059153;28;20120;-67
2022/01/01 08:34:06;;;;;;;31.97;11.80;;;;;;;11.40;100.00;87002.00;5059297;28;20334;-67
2022/01/01 08:36:31;;;;;;;30.30;11.70;;;;;;;11.47;100.00;86344.13;5058677;28;20547;-67
2022/01/01 08:38:57;;;;;;;33.57;11.43;;;;;;;11.41;100.00;86336.63;5059437;28;20107;-67
2022/01/01 08:41:22;;;;;;;30.37;10.77;;;;;;;11.44;100.00;86341.13;5060379;28;20040;-67
2022/01/01 08:43:48;;;;;;;31.87;11.47;;;;;;;11.47;100.00;84676.22;5058759;28;20699;-67
2022/01/01 08:46:13;;;;;;;30.40;10.17;;;;;;;11.48;100.00;84010.44;5058945;28;20182;-68
2022/01/01 08:48:41;;;;;;;31.23;10.53;;;;;;;11.44;100.00;84671.81;5058239;28;20031;-68
2022/01/01 08:51:17;;;;;;;30.83;10.03;;;;;;;11.43;100.00;85672.09;5057172;28;20468;-67
2022/01/01 08:53:44;;;;;;;34.60;12.17;;;;;;;11.44;100.00;85673.59;5053979;28;20025;-67
2022/01/01 08:56:10;;;;;;;25.10;9.83;;;;;;;11.51;100.00;85683.28;5058502;28;20037;-67
2022/01/01 08:58:36;;;;;;;28.63;9.90;;;;;;;11.53;100.00;83350.59;5050137;28;20392;-67
2022/01/01 09:01:03;;;;;;;32.40;10.87;;;;;;;11.52;100.00;83349.13;5052734;28;20074;-67
2022/01/01 09:03:28;;;;;;;24.67;9.77;;;;;;;11.55;100.00;83352.75;5051893;28;21012;-67
2022/01/01 09:05:53;;;;;;;25.40;9.60;;;;;;;11.55;100.00;83353.47;5051192;28;20024;-68
2022/01/01 09:08:19;;;;;;;30.73;9.60;;;;;;;11.60;100.00;83360.72;5051412;28;20090;-68
2022/01/01 09:10:44;;;;;;;28.00;9.93;;;;;;;11.62;100.00;83030.03;5057730;28;20059;-68
2022/01/01 09:13:10;;;;;;;29.57;10.20;;;;;;;11.68;100.00;82371.56;5058100;28;20174;-68
2022/01/01 09:15:35;;;;;;;30.33;11.07;;;;;;;11.72;100.00;80043.13;5058959;28;20185;-68
2022/01/01 09:18:00;;;;;;;34.33;11.23;;;;;;;11.79;100.00;76719.38;5059710;28;20032;-68
2022/01/01 09:20:26;;;;;;;33.63;11.53;;;;;;;11.84;100.00;73397.56;5059934;28;20287;-68
2022/01/01 09:22:51;;;;;;;34.17;11.20;;;;;;;11.84;100.00;71401.00;5058763;28;20421;-68
2022/01/01 09:25:17;;;;;;;32.03;11.27;;;;;;;11.87;100.00;70407.13;5058444;28;20081;-68
2022/01/01 09:27:42;;;;;;;32.47;11.27;;;;;;;11.91;100.00;70744.59;5056239;28;20855;-68
2022/01/01 09:30:09;;;;;;;29.57;11.13;;;;;;;11.96;100.00;72081.91;5052164;28;20197;-68
2022/01/01 09:32:36;;;;;;;36.17;11.73;;;;;;;11.98;100.00;72417.16;5048567;28;20040;-68
2022/01/01 09:35:02;;;;;;;34.67;12.70;;;;;;;11.98;100.00;72749.25;5051144;28;20512;-68
2022/01/01 09:37:29;;;;;;;38.80;12.70;;;;;;;11.99;100.00;74415.47;5052022;28;20043;-68
2022/01/01 09:39:56;;;;;;;34.07;12.20;;;;;;;12.03;100.00;73754.16;5052052;28;20261;-68
2022/01/01 09:42:22;;;;;;;33.67;11.90;;;;;;;12.08;100.00;74426.50;5051325;28;20145;-68
2022/01/01 09:44:49;;;;;;;35.17;11.70;;;;;;;12.18;100.00;71442.78;5053010;28;20040;-68
2022/01/01 09:47:15;;;;;;;32.13;11.83;;;;;;;12.16;100.00;69777.63;5051547;28;20033;-68
2022/01/01 09:49:41;;;;;;;33.10;12.47;;;;;;;12.14;100.00;70107.78;5052890;28;20028;-68
2022/01/01 09:52:09;;;;;;;32.13;11.53;;;;;;;12.14;100.00;73102.47;5051467;28;20370;-68
2022/01/01 09:54:34;;;;;;;34.93;12.03;;;;;;;12.17;100.00;75104.31;5052931;28;20059;-68
2022/01/01 09:57:00;;;;;;;32.57;11.23;;;;;;;12.24;100.00;74780.38;5052170;28;20028;-68
2022/01/01 09:59:25;;;;;;;32.67;12.07;;;;;;;12.25;100.00;72117.81;5050984;28;20169;-68
2022/01/01 10:01:50;;;;;;;31.47;11.37;;;;;;;12.26;100.00;67129.22;5050338;28;20075;-68
2022/01/01 10:04:16;;;;;;;31.70;11.57;;;;;;;12.32;100.00;63814.38;5048630;28;20051;-68
2022/01/01 10:06:43;;;;;;;31.50;11.57;;;;;;;12.35;100.00;63152.50;5052729;28;20037;-68
2022/01/01 10:09:09;;;;;;;31.03;11.00;;;;;;;12.47;100.00;58519.59;5050340;28;20055;-68
2022/01/01 10:11:36;;;;;;;27.07;10.27;;;;;;;12.54;100.00;51238.09;5052029;28;20200;-68
2022/01/01 10:14:07;;;;;;;24.37;10.13;;;;;;;12.63;100.00;43310.66;5051630;28;20277;-68
2022/01/01 10:16:44;;;;;;;22.50;8.50;;;;;;;12.68;100.00;36056.44;5053499;28;20608;-68
2022/01/01 10:19:10;;;;;;;27.77;10.77;;;;;;;12.63;100.00;33747.25;5045090;28;20682;-68
2022/01/01 10:21:41;;;;;;;25.23;9.57;;;;;;;12.70;100.00;34080.94;5052478;28;20036;-68
2022/01/01 10:24:14;;;;;;;24.88;9.52;;;;;;;12.73;100.00;28159.03;5051362;28;20025;-68
2022/01/01 10:29:29;;;;;;;26.27;9.67;;;;;;;12.81;100.00;19624.06;5049168;28;20047;-68
2022/01/01 10:32:07;;;;;;;24.13;8.47;;;;;;;12.85;100.00;13726.34;5052296;28;20117;-68
2022/01/01 10:34:42;;;;;;;20.83;8.70;;;;;;;12.86;100.00;5877.13;5052749;28;20289;-68
2022/01/01 10:37:08;;;;;;;22.43;8.97;;;;;;;12.83;100.00;8164.06;5053082;28;20090;-68
2022/01/01 10:39:47;;;;;;;20.97;9.13;;;;;;;12.84;100.00;4897.00;5050335;28;20033;-68
2022/01/01 10:42:13;;;;;;;21.40;9.17;;;;;;;12.90;100.00;2612.38;5052484;28;20063;-68
2022/01/01 10:44:39;;;;;;;18.80;8.50;;;;;;;12.94;100.00;-12691.56;5052292;28;20785;-68
2022/01/01 10:47:06;;;;;;;21.10;8.33;;;;;;;13.01;100.00;-13992.03;5052754;28;20066;-68
2022/01/01 10:49:50;;;;;;;25.87;8.60;;;;;;;13.01;100.00;-10417.53;5052233;28;20036;-68
2022/01/01 10:52:19;;;;;;;20.43;7.03;;;;;;;13.08;100.00;-19507.16;5048924;28;20101;-68
2022/01/01 10:54:57;;;;;;;21.23;7.57;;;;;;;13.15;100.00;-19508.84;5045589;28;20435;-68
2022/01/01 10:57:28;;;;;;;19.53;6.63;;;;;;;13.17;100.00;-19509.38;5046787;28;20021;-68
2022/01/01 11:00:17;;;;;;;16.55;6.68;;;;;;;13.15;100.00;-19508.97;5049386;28;20404;-67
2022/01/01 11:02:49;;;;;;;14.93;6.40;;;;;;;13.12;100.00;-19508.06;5049845;28;20058;-68
2022/01/01 11:05:16;;;;;;;14.80;5.50;;;;;;;13.11;100.00;-19507.81;5045960;28;20041;-68
2022/01/01 11:07:52;;;;;;;15.57;5.67;;;;;;;13.10;100.00;-19507.66;5043560;28;20090;-68